首页
METAR-TAF:

METAR-TAF

机场 :

迈克蒂亚西蒙·玻利瓦尔国际机场

卡拉卡斯, 委内瑞拉

纬度: 10-36N, 经度: 066-59W, 海拔: 43米

当前天气观测

该预报发布于56分钟前的00:00 UTC
风速2节,风向
温度 27°C
湿度 84%
气压 1007 hPa
能见度10公里或以上
多云层高于1600英尺

METAR: SVMI 210000Z 09002KT 9999 BKN016 27/24 Q1007

时间: 20:56 (00:56 UTC)

预报

该预报发布于2小时和56分钟前的22:00 UTC
预报有效从21日的 00点(UTC)到 22日的 00点(UTC)
风速1节,风向
能见度10公里或以上
散云层高于1600英尺
成为
从 21日的 02点(UTC)到 21日的 07点(UTC)
风速节,风向
能見度: 9000
少量云层高于1600英尺
散云层高于7000英尺
小毛毛雨

TAF: SVMI 202200Z 2100/2200 09001KT 9999 SCT016 TX33/19Z TN25/09Z BECMG 2102/2107 00000KT 9000 -DZ FEW016 SCT070

超过4000个机场的气象观测和天气预报(METAR&TAF报告)。

可查询的气象台以黄色和红色小点在地图上表示。

将鼠标移到小点上方,可查看气象台名称。

然后点击查看天气观测和预报。

如需切换地图:点击带黑十字的绿色按钮放大地图;点击带横线的绿色按钮缩小地图;或者点击绿色箭头查看邻近地区的地图。


METAR-TAF: